Time;durP1;ratioP1;P1;durP2;ratioP2;P2;SDS_P1;SDS_P2;PMS_P1;PMS_P2;Temp;Humidity;BMP_temperature;BMP_pressure;BME280_temperature;BME280_humidity;BME280_pressure;Samples;Min_cycle;Max_cycle;Signal;HPM_P1;HPM_P2
2022/03/17 00:00:30;;;;;;;17.65;15.13;;;;;;;11.26;74.51;101829.38;5051530;28;20060;-45
2022/03/17 00:02:58;;;;;;;19.38;15.43;;;;;;;11.25;74.16;101823.06;5048345;28;20049;-48
2022/03/17 00:05:25;;;;;;;20.08;15.07;;;;;;;11.24;75.09;101818.69;5051419;28;20041;-48
2022/03/17 00:07:53;;;;;;;18.05;14.93;;;;;;;11.24;74.37;101813.25;5049779;28;20518;-43
2022/03/17 00:10:21;;;;;;;21.15;15.18;;;;;;;11.23;74.81;101814.34;5056855;28;20045;-44
2022/03/17 00:12:49;;;;;;;19.55;15.77;;;;;;;11.24;75.23;101813.25;5051874;28;20075;-42
2022/03/17 00:15:16;;;;;;;19.65;16.17;;;;;;;11.25;74.60;101817.63;5056800;28;20044;-42
2022/03/17 00:17:46;;;;;;;19.67;15.57;;;;;;;11.25;75.30;101824.97;5055272;28;20418;-42
2022/03/17 00:20:14;;;;;;;18.90;16.00;;;;;;;11.24;74.61;101815.97;5056485;28;20055;-42
2022/03/17 00:22:42;;;;;;;18.63;15.55;;;;;;;11.22;74.76;101822.75;5048127;28;20051;-42
2022/03/17 00:25:10;;;;;;;20.27;16.20;;;;;;;11.21;75.49;101826.56;5056254;28;20079;-41
2022/03/17 00:27:38;;;;;;;18.08;15.30;;;;;;;11.19;75.63;101820.53;5042849;28;20049;-42
2022/03/17 00:30:06;;;;;;;20.05;15.45;;;;;;;11.18;75.55;101818.84;5036495;28;20048;-42
2022/03/17 00:32:35;;;;;;;17.92;15.88;;;;;;;11.18;75.84;101810.69;5035955;28;20057;-41
2022/03/17 00:37:49;;;;;;;20.42;16.48;;;;;;;11.16;75.28;101812.81;5056337;28;20479;-51
2022/03/17 00:40:16;;;;;;;18.45;16.02;;;;;;;11.15;75.57;101811.19;5056098;28;20510;-44
2022/03/17 00:42:44;;;;;;;18.30;15.20;;;;;;;11.15;75.38;101811.19;5052474;28;20406;-43
2022/03/17 00:45:13;;;;;;;19.85;15.23;;;;;;;11.16;76.12;101815.53;5040446;28;20056;-46
2022/03/17 00:47:40;;;;;;;21.85;16.42;;;;;;;11.16;75.87;101810.94;5036094;28;20049;-45
2022/03/17 00:50:10;;;;;;;19.67;15.48;;;;;;;11.17;75.38;101815.31;5044711;28;20045;-43
2022/03/17 00:52:37;;;;;;;15.40;12.60;;;;;;;11.17;75.46;101820.75;5039687;28;20132;-46
2022/03/17 00:55:06;;;;;;;19.70;14.95;;;;;;;11.19;75.62;101821.34;5035607;28;20559;-44
2022/03/17 00:57:36;;;;;;;13.93;10.48;;;;;;;11.22;75.48;101830.94;5048772;28;20097;-45
2022/03/17 01:00:08;;;;;;;16.35;12.75;;;;;;;11.23;76.14;101825.25;5035734;28;20045;-44
2022/03/17 01:02:35;;;;;;;18.23;14.70;;;;;;;11.24;75.61;101826.06;5037208;28;20404;-43
2022/03/17 01:05:04;;;;;;;17.90;14.65;;;;;;;11.18;75.37;101833.31;5035725;28;20507;-42
2022/03/17 01:07:32;;;;;;;20.00;15.65;;;;;;;11.16;75.78;101824.59;5035912;28;20511;-47
2022/03/17 01:10:00;;;;;;;18.38;14.45;;;;;;;11.14;76.02;101820.44;5050509;28;20083;-45
2022/03/17 01:12:28;;;;;;;20.60;16.45;;;;;;;11.14;76.39;101828.63;5038674;28;20038;-48
2022/03/17 01:14:56;;;;;;;19.27;15.55;;;;;;;11.12;75.66;101825.31;5035485;28;20046;-46
2022/03/17 01:17:23;;;;;;;20.80;16.00;;;;;;;11.10;76.41;101817.38;5035294;28;20084;-47
2022/03/17 01:19:51;;;;;;;19.25;15.27;;;;;;;11.11;76.19;101826.38;5035069;28;20095;-46
2022/03/17 01:22:21;;;;;;;20.85;14.93;;;;;;;11.11;76.49;101826.38;5036572;28;20512;-46
2022/03/17 01:24:52;;;;;;;19.85;15.70;;;;;;;11.14;76.29;101820.44;5036374;28;20041;-45
2022/03/17 01:27:20;;;;;;;20.17;15.57;;;;;;;11.13;76.17;101829.69;5035320;28;20045;-45
2022/03/17 01:29:48;;;;;;;18.13;14.82;;;;;;;11.13;76.55;101827.78;5035359;28;20045;-47
2022/03/17 01:32:16;;;;;;;20.75;16.23;;;;;;;11.12;76.54;101825.31;5033711;28;20515;-48
2022/03/17 01:34:44;;;;;;;17.33;14.23;;;;;;;11.13;76.68;101830.50;5043680;28;20045;-45
2022/03/17 01:37:12;;;;;;;16.00;13.27;;;;;;;11.16;77.01;101815.53;5033189;28;20041;-46
2022/03/17 01:39:40;;;;;;;18.00;14.18;;;;;;;11.17;76.56;101817.22;5034102;28;20046;-45
2022/03/17 01:42:09;;;;;;;19.20;15.85;;;;;;;11.16;76.84;101812.81;5035142;28;20050;-45
2022/03/17 01:44:38;;;;;;;25.58;16.85;;;;;;;11.13;76.54;101810.59;5035353;28;20045;-48
2022/03/17 01:49:52;;;;;;;19.90;14.32;;;;;;;11.19;77.19;101834.16;5033824;28;20048;-45
2022/03/17 01:52:20;;;;;;;17.20;12.57;;;;;;;11.22;77.45;101822.75;5033591;28;20053;-47
2022/03/17 01:54:48;;;;;;;17.90;13.35;;;;;;;11.29;77.80;101817.97;5044910;28;20460;-46
2022/03/17 01:57:16;;;;;;;16.83;12.82;;;;;;;11.26;77.82;101811.09;5034842;28;20057;-47
2022/03/17 01:59:44;;;;;;;13.52;10.90;;;;;;;11.27;77.23;101814.66;5054566;28;20047;-45
2022/03/17 02:02:12;;;;;;;14.77;10.52;;;;;;;11.30;77.71;101817.72;5005116;28;20049;-44
2022/03/17 02:04:41;;;;;;;16.55;12.18;;;;;;;11.36;77.35;101817.81;5033368;28;20045;-43
2022/03/17 02:07:13;;;;;;;12.48;9.27;;;;;;;11.35;77.04;101822.41;5042369;28;20049;-44
2022/03/17 02:09:42;;;;;;;17.25;12.20;;;;;;;11.35;77.67;101822.41;5053132;28;20132;-42
2022/03/17 02:15:03;;;;;;;18.83;13.38;;;;;;;11.31;78.00;101815.81;5054508;28;20506;-46
2022/03/17 02:17:32;;;;;;;17.48;13.77;;;;;;;11.32;77.74;101819.38;5052857;28;20041;-46
2022/03/17 02:20:04;;;;;;;15.70;11.63;;;;;;;11.34;78.91;101822.69;5040507;28;20160;-46
2022/03/17 02:22:31;;;;;;;17.48;11.85;;;;;;;11.40;78.13;101825.25;5046083;28;20049;-47
2022/03/17 02:27:47;;;;;;;18.05;11.32;;;;;;;11.41;78.71;101826.06;5034027;28;20129;-46
2022/03/17 02:30:20;;;;;;;13.32;10.93;;;;;;;11.40;78.27;101830.69;5040933;28;20407;-46
2022/03/17 02:32:48;;;;;;;14.05;10.63;;;;;;;11.39;78.81;101829.03;5050814;28;20064;-48
2022/03/17 02:35:22;;;;;;;16.33;10.88;;;;;;;11.38;78.64;101827.38;5036601;28;20053;-46
2022/03/17 02:37:51;;;;;;;15.25;11.00;;;;;;;11.38;79.08;101826.56;5053770;28;20131;-47
2022/03/17 02:40:19;;;;;;;14.48;11.13;;;;;;;11.37;78.89;101824.91;5051225;28;20044;-47
2022/03/17 02:42:48;;;;;;;13.30;9.70;;;;;;;11.38;79.60;101835.56;5054472;28;20041;-47
2022/03/17 02:45:16;;;;;;;20.95;14.65;;;;;;;11.36;79.07;101837.72;5053865;28;20519;-46
2022/03/17 02:47:43;;;;;;;17.25;11.60;;;;;;;11.34;79.54;101845.31;5052588;28;20409;-46
2022/03/17 02:50:11;;;;;;;17.30;12.18;;;;;;;11.34;80.03;101841.78;5047758;28;20196;-46
2022/03/17 02:52:40;;;;;;;16.40;12.80;;;;;;;11.35;79.48;101844.22;5043844;28;20037;-45
2022/03/17 02:55:10;;;;;;;16.35;12.27;;;;;;;11.33;79.94;101848.28;5032127;28;20496;-45
2022/03/17 02:57:42;;;;;;;19.80;13.65;;;;;;;11.32;80.69;101844.75;5033689;28;20038;-46
2022/03/17 03:00:11;;;;;;;19.38;14.52;;;;;;;11.33;80.96;101851.88;5049419;28;20147;-45
2022/03/17 03:02:39;;;;;;;19.27;13.60;;;;;;;11.34;81.55;101852.69;5037782;28;20053;-45
2022/03/17 03:05:08;;;;;;;16.30;12.30;;;;;;;11.34;81.96;101853.50;5035776;28;20108;-46
2022/03/17 03:07:36;;;;;;;20.45;14.75;;;;;;;11.33;82.22;101864.66;5052118;28;20053;-44
2022/03/17 03:10:06;;;;;;;22.80;15.88;;;;;;;11.32;83.35;101866.56;5040810;28;20057;-47
2022/03/17 03:12:33;;;;;;;23.65;16.58;;;;;;;11.31;83.79;101875.84;5033285;28;20042;-46
2022/03/17 03:15:01;;;;;;;19.75;15.48;;;;;;;11.30;84.27;101879.63;5033421;28;20053;-48
2022/03/17 03:17:29;;;;;;;22.45;15.98;;;;;;;11.30;87.00;101885.09;5033460;28;20056;-46
2022/03/17 03:19:57;;;;;;;23.98;17.60;;;;;;;11.29;88.42;101894.34;5037232;28;20415;-47
2022/03/17 03:22:29;;;;;;;24.55;17.40;;;;;;;11.26;89.76;101900.31;5053357;28;20041;-47
2022/03/17 03:24:57;;;;;;;21.27;17.17;;;;;;;11.23;90.56;101920.72;5052148;28;20036;-47
2022/03/17 03:27:27;;;;;;;23.25;17.63;;;;;;;11.20;92.59;101939.47;5053335;28;20049;-47
2022/03/17 03:29:57;;;;;;;18.45;14.02;;;;;;;11.12;95.06;101929.78;5041177;28;20050;-45
2022/03/17 03:32:25;;;;;;;18.58;12.77;;;;;;;11.04;96.14;101946.53;5050890;28;20045;-45
2022/03/17 03:34:53;;;;;;;13.05;9.30;;;;;;;10.93;97.10;101950.97;5053259;28;20037;-44
2022/03/17 03:37:23;;;;;;;9.25;6.95;;;;;;;10.79;97.22;101950.41;5051588;28;20040;-44
2022/03/17 03:39:52;;;;;;;9.48;7.00;;;;;;;10.70;97.86;101960.03;5046668;28;20136;-47
2022/03/17 03:42:20;;;;;;;9.55;6.68;;;;;;;10.64;97.80;101969.19;5044875;28;20041;-45
2022/03/17 03:44:48;;;;;;;9.55;6.63;;;;;;;10.63;98.04;101972.97;5052897;28;20037;-49
2022/03/17 03:47:16;;;;;;;8.88;6.72;;;;;;;10.64;98.05;101978.19;5052945;28;20056;-46
2022/03/17 03:49:44;;;;;;;10.13;7.32;;;;;;;10.60;97.83;101977.00;5041734;28;20136;-46
2022/03/17 03:52:13;;;;;;;10.60;7.90;;;;;;;10.57;97.20;101985.66;5032946;28;20048;-46
2022/03/17 03:54:41;;;;;;;11.25;8.32;;;;;;;10.55;97.64;102001.41;5045438;28;20052;-46
2022/03/17 03:57:09;;;;;;;10.55;8.73;;;;;;;10.50;97.82;101998.59;5052605;28;20509;-49
2022/03/17 03:59:38;;;;;;;12.13;9.85;;;;;;;10.48;97.88;102011.63;5050860;28;20041;-46
2022/03/17 04:02:08;;;;;;;17.85;10.45;;;;;;;10.40;98.17;102017.44;5051823;28;20478;-46
2022/03/17 04:04:40;;;;;;;13.77;10.13;;;;;;;10.41;98.35;102025.38;5051382;28;20070;-44
2022/03/17 04:07:10;;;;;;;12.85;9.45;;;;;;;10.33;97.38;102039.34;5051740;28;20049;-46
2022/03/17 04:09:40;;;;;;;13.55;8.60;;;;;;;10.29;96.84;102048.22;5044187;28;20498;-45
2022/03/17 04:12:10;;;;;;;12.57;8.20;;;;;;;10.27;96.17;102061.22;5032808;28;20394;-46
2022/03/17 04:14:38;;;;;;;9.68;7.18;;;;;;;10.20;95.12;102073.06;5035815;28;20049;-48
2022/03/17 04:17:06;;;;;;;9.73;6.55;;;;;;;10.12;93.95;102067.94;5039590;28;20038;-46
2022/03/17 04:19:34;;;;;;;9.57;6.10;;;;;;;10.08;93.90;102064.06;5033774;28;20033;-43
2022/03/17 04:22:02;;;;;;;14.60;8.40;;;;;;;10.06;94.12;102071.63;5032615;28;20472;-45
2022/03/17 04:24:30;;;;;;;14.75;9.63;;;;;;;9.99;94.22;102082.59;5031076;28;20045;-44
2022/03/17 04:26:57;;;;;;;14.50;10.05;;;;;;;9.99;93.88;102092.66;5041224;28;20037;-45
2022/03/17 04:29:25;;;;;;;13.90;9.50;;;;;;;9.99;94.24;102103.56;5039583;28;20054;-48
2022/03/17 04:31:52;;;;;;;16.75;10.38;;;;;;;9.96;93.96;102114.94;5032457;28;20064;-43
2022/03/17 04:34:20;;;;;;;17.88;11.75;;;;;;;9.87;94.46;102138.09;5032613;28;20048;-45
2022/03/17 04:36:48;;;;;;;19.67;11.48;;;;;;;9.82;94.90;102136.88;5032439;28;20124;-46
2022/03/17 04:39:15;;;;;;;14.70;10.43;;;;;;;9.83;95.07;102134.97;5032715;28;20055;-46
2022/03/17 04:41:43;;;;;;;16.35;10.20;;;;;;;9.88;95.17;102147.91;5032551;28;20046;-48
2022/03/17 04:44:13;;;;;;;14.43;10.13;;;;;;;9.89;95.42;102155.03;5031247;28;20400;-48
2022/03/17 04:46:40;;;;;;;14.98;9.82;;;;;;;9.87;96.16;102170.75;5033678;28;20095;-46
2022/03/17 04:49:10;;;;;;;16.83;9.98;;;;;;;9.84;96.73;102168.47;5044929;28;20079;-45
2022/03/17 04:51:38;;;;;;;14.43;9.70;;;;;;;9.79;97.43;102175.47;5048988;28;20133;-46
2022/03/17 04:54:06;;;;;;;15.85;9.40;;;;;;;9.76;97.68;102175.06;5033292;28;20407;-47
2022/03/17 04:56:34;;;;;;;12.02;8.88;;;;;;;9.73;98.12;102176.38;5035775;28;20045;-47
2022/03/17 04:59:01;;;;;;;12.85;8.82;;;;;;;9.66;98.73;102202.00;5036653;28;20041;-48
2022/03/17 05:01:29;;;;;;;13.88;8.98;;;;;;;9.64;98.86;102194.06;5034787;28;20559;-46
2022/03/17 05:03:57;;;;;;;12.43;8.60;;;;;;;9.63;99.33;102197.03;5036541;28;20041;-46
2022/03/17 05:06:25;;;;;;;13.15;8.50;;;;;;;9.60;99.32;102215.47;5055873;28;20041;-45
2022/03/17 05:08:52;;;;;;;16.13;9.88;;;;;;;9.58;98.58;102217.59;5053936;28;20041;-45
2022/03/17 05:11:20;;;;;;;16.40;9.65;;;;;;;9.56;98.28;102221.59;5049028;28;20030;-46
2022/03/17 05:13:48;;;;;;;15.27;9.05;;;;;;;9.57;97.90;102228.69;5036623;28;20044;-43
2022/03/17 05:16:16;;;;;;;15.05;9.88;;;;;;;9.55;96.74;102233.53;5035757;28;20766;-48
2022/03/17 05:18:44;;;;;;;15.25;9.55;;;;;;;9.53;96.53;102246.53;5035198;28;20103;-47
2022/03/17 05:21:12;;;;;;;15.25;7.40;;;;;;;9.38;93.92;102265.94;5052699;28;20132;-47
2022/03/17 05:23:40;;;;;;;15.70;6.55;;;;;;;9.30;93.18;102274.38;5042189;28;20045;-47
2022/03/17 05:26:07;;;;;;;19.75;7.10;;;;;;;9.29;93.00;102279.00;5033717;28;20038;-46
2022/03/17 05:28:35;;;;;;;19.50;5.93;;;;;;;9.28;91.83;102288.19;5034464;28;20053;-45
2022/03/17 05:31:03;;;;;;;17.42;5.60;;;;;;;9.29;90.66;102300.75;5036114;28;20077;-45
2022/03/17 05:33:31;;;;;;;13.35;4.95;;;;;;;9.28;91.05;102307.22;5033649;28;20555;-42
2022/03/17 05:35:58;;;;;;;17.25;5.95;;;;;;;9.28;90.30;102312.66;5045391;28;20472;-45
2022/03/17 05:38:26;;;;;;;17.73;5.25;;;;;;;9.34;89.78;102321.84;5038924;28;20049;-44
2022/03/17 05:40:54;;;;;;;13.23;4.38;;;;;;;9.33;88.24;102322.88;5036129;28;20055;-45
2022/03/17 05:43:23;;;;;;;15.50;4.72;;;;;;;9.29;87.60;102327.94;5033761;28;20045;-43
2022/03/17 05:45:51;;;;;;;13.15;4.40;;;;;;;9.24;86.76;102335.94;5035071;28;20049;-45
2022/03/17 05:48:19;;;;;;;14.05;4.22;;;;;;;9.21;86.63;102340.97;5034796;28;20046;-46
2022/03/17 05:50:49;;;;;;;15.27;4.80;;;;;;;9.06;86.54;102354.91;5046914;28;20044;-47
2022/03/17 05:53:16;;;;;;;16.02;5.43;;;;;;;8.90;86.51;102362.53;5054638;28;20045;-47
2022/03/17 05:55:44;;;;;;;18.88;4.63;;;;;;;8.86;86.79;102372.19;5054232;28;20041;-46
2022/03/17 05:58:12;;;;;;;13.77;4.30;;;;;;;8.89;86.96;102377.16;5054559;28;20045;-47
2022/03/17 06:00:39;;;;;;;16.23;4.57;;;;;;;8.96;87.19;102386.13;5043427;28;20064;-44
2022/03/17 06:03:07;;;;;;;15.68;4.05;;;;;;;8.99;86.19;102386.75;5034698;28;20045;-43
2022/03/17 06:05:35;;;;;;;15.73;4.05;;;;;;;9.02;86.36;102392.59;5033330;28;20037;-45
2022/03/17 06:08:09;;;;;;;11.10;3.55;;;;;;;9.05;85.04;102391.31;5050836;28;20041;-46
2022/03/17 06:10:38;;;;;;;13.15;4.00;;;;;;;9.03;85.02;102405.13;5053363;28;20216;-44
2022/03/17 06:13:06;;;;;;;13.65;3.65;;;;;;;8.87;85.50;102430.09;5040255;28;20097;-42
2022/03/17 06:15:34;;;;;;;13.27;3.95;;;;;;;8.77;85.28;102410.69;5036404;28;20041;-44
2022/03/17 06:18:04;;;;;;;12.07;3.92;;;;;;;8.74;85.71;102425.56;5036600;28;20051;-45
2022/03/17 06:20:34;;;;;;;13.70;3.35;;;;;;;8.70;85.39;102427.03;5052953;28;20487;-48
2022/03/17 06:23:04;;;;;;;11.30;3.53;;;;;;;8.70;85.12;102438.72;5054277;28;20041;-49
2022/03/17 06:25:34;;;;;;;9.65;3.35;;;;;;;8.71;84.81;102437.69;5044138;28;20140;-47
2022/03/17 06:28:07;;;;;;;12.63;3.53;;;;;;;8.72;85.00;102442.06;5033112;28;20093;-44
2022/03/17 06:30:35;;;;;;;12.32;3.20;;;;;;;8.69;84.20;102441.69;5046789;28;20037;-44
2022/03/17 06:33:04;;;;;;;13.73;3.60;;;;;;;8.66;83.01;102461.97;5052644;28;20064;-44
2022/03/17 06:35:33;;;;;;;10.25;2.80;;;;;;;8.70;83.60;102465.06;5035970;28;20048;-48
2022/03/17 06:38:03;;;;;;;10.50;3.00;;;;;;;8.72;83.60;102460.25;5047496;28;20087;-45
2022/03/17 06:40:31;;;;;;;11.35;3.20;;;;;;;8.67;82.65;102479.09;5033963;28;20052;-47
2022/03/17 06:42:59;;;;;;;10.07;3.50;;;;;;;8.69;83.31;102491.41;5032389;28;20116;-48
2022/03/17 06:45:27;;;;;;;13.13;3.42;;;;;;;8.68;82.88;102494.34;5046016;28;20049;-43
2022/03/17 06:47:55;;;;;;;9.73;3.13;;;;;;;8.72;82.88;102492.88;5052592;28;20040;-44
2022/03/17 06:50:23;;;;;;;10.20;2.72;;;;;;;8.69;82.21;102496.03;5043425;28;20246;-42
2022/03/17 06:52:51;;;;;;;8.45;2.55;;;;;;;8.70;81.88;102501.22;5033518;28;20053;-44
2022/03/17 06:55:19;;;;;;;9.68;2.88;;;;;;;8.78;81.79;102511.06;5015687;28;20492;-45
2022/03/17 06:57:47;;;;;;;12.20;3.10;;;;;;;8.81;82.10;102526.91;5033553;28;20052;-45
2022/03/17 07:00:16;;;;;;;10.65;2.95;;;;;;;8.85;82.32;102521.88;5034640;28;20050;-46
2022/03/17 07:02:45;;;;;;;11.85;3.28;;;;;;;8.84;81.71;102531.91;4684271;28;10000564;-45
2022/03/17 07:05:14;;;;;;;7.63;2.65;;;;;;;8.77;81.65;102536.53;5029340;28;20095;-45
2022/03/17 07:07:43;;;;;;;14.80;2.92;;;;;;;8.67;81.59;102536.16;5031000;28;20038;-44
2022/03/17 07:10:12;;;;;;;11.88;3.35;;;;;;;8.64;81.73;102542.03;5050069;28;20167;-49
2022/03/17 07:12:44;;;;;;;10.32;3.45;;;;;;;8.62;82.14;102560.44;5048961;28;20120;-47
2022/03/17 07:15:12;;;;;;;12.85;3.03;;;;;;;8.57;83.03;102554.78;5041644;28;20041;-47
2022/03/17 07:17:41;;;;;;;9.95;2.70;;;;;;;8.52;83.44;102564.41;5011826;28;20041;-49
2022/03/17 07:20:11;;;;;;;7.90;2.80;;;;;;;8.57;83.88;102577.34;5030856;28;20030;-45
2022/03/17 07:22:40;;;;;;;11.48;3.05;;;;;;;8.61;83.30;102572.31;5028588;28;20496;-43
2022/03/17 07:25:09;;;;;;;9.50;2.92;;;;;;;8.67;83.47;102576.94;5029587;28;20054;-47
2022/03/17 07:27:43;;;;;;;14.57;4.85;;;;;;;8.73;82.91;102579.63;5032224;28;20041;-47
2022/03/17 07:30:13;;;;;;;12.90;4.15;;;;;;;8.69;83.51;102596.56;5049720;28;20045;-50
2022/03/17 07:32:41;;;;;;;15.30;3.63;;;;;;;8.61;84.68;102605.78;5049578;28;20056;-50
2022/03/17 07:35:09;;;;;;;17.38;4.07;;;;;;;8.61;85.07;102608.50;5049693;28;20075;-50
2022/03/17 07:37:38;;;;;;;13.70;3.65;;;;;;;8.49;85.71;102616.44;5049362;28;20045;-47
2022/03/17 07:40:06;;;;;;;15.25;3.47;;;;;;;8.50;86.33;102615.41;5042613;28;20041;-44
2022/03/17 07:42:34;;;;;;;17.00;3.72;;;;;;;8.46;86.28;102624.16;5029855;28;20056;-46
2022/03/17 07:45:17;;;;;;;15.18;4.15;;;;;;;8.47;85.38;102634.84;5029853;28;20056;-48
2022/03/17 07:48:05;;;;;;;16.92;4.70;;;;;;;8.43;85.47;102633.56;5035333;28;20040;-51
2022/03/17 07:50:33;;;;;;;15.10;3.83;;;;;;;8.44;85.08;102640.69;5035353;28;20055;-45
2022/03/17 07:53:01;;;;;;;14.35;4.03;;;;;;;8.44;85.16;102639.84;5035171;28;20051;-47
2022/03/17 07:55:29;;;;;;;14.48;3.47;;;;;;;8.49;85.68;102643.63;5029082;28;20047;-44
2022/03/17 07:57:56;;;;;;;13.73;3.78;;;;;;;8.57;85.69;102647.16;5029620;28;20065;-45
2022/03/17 08:00:25;;;;;;;20.48;4.53;;;;;;;8.60;85.88;102655.72;5029465;28;20045;-45
2022/03/17 08:02:54;;;;;;;29.23;7.60;;;;;;;8.64;87.60;102656.16;5032811;28;20046;-47
2022/03/17 08:05:22;;;;;;;18.08;4.53;;;;;;;8.63;87.08;102665.34;5032511;28;20041;-48
2022/03/17 08:07:49;;;;;;;17.38;3.97;;;;;;;8.48;86.79;102673.69;5032364;28;20044;-51
2022/03/17 08:10:17;;;;;;;15.68;4.00;;;;;;;8.44;88.19;102681.44;5032710;28;20046;-45
2022/03/17 08:12:47;;;;;;;17.75;4.13;;;;;;;8.38;89.11;102689.56;5015066;28;20492;-49
2022/03/17 08:15:15;;;;;;;12.15;3.75;;;;;;;8.30;89.62;102696.84;5032471;28;20100;-47
2022/03/17 08:17:43;;;;;;;15.27;4.03;;;;;;;8.32;89.95;102702.06;5032485;28;20057;-46
2022/03/17 08:20:11;;;;;;;14.90;4.82;;;;;;;8.33;90.01;102709.19;5032487;28;20045;-47
2022/03/17 08:22:41;;;;;;;14.50;3.72;;;;;;;8.33;89.82;102706.47;5030851;28;20042;-46
2022/03/17 08:25:09;;;;;;;14.60;3.70;;;;;;;8.34;88.75;102721.69;5034780;28;20053;-48
2022/03/17 08:27:40;;;;;;;15.40;4.07;;;;;;;8.31;88.78;102717.53;5032835;28;20034;-50
2022/03/17 08:30:08;;;;;;;19.48;4.82;;;;;;;8.42;89.91;102712.53;5037702;28;20045;-49
2022/03/17 08:32:36;;;;;;;12.65;3.45;;;;;;;8.48;88.39;102722.59;5056460;28;20084;-45
2022/03/17 08:35:05;;;;;;;17.95;4.47;;;;;;;8.66;86.94;102727.41;5055924;28;20103;-47
2022/03/17 08:37:41;;;;;;;14.95;3.70;;;;;;;8.59;84.82;102740.19;5053578;28;20035;-48
2022/03/17 08:40:10;;;;;;;13.70;3.70;;;;;;;8.55;84.82;102737.03;5051045;28;20393;-48
2022/03/17 08:42:38;;;;;;;16.17;3.80;;;;;;;8.56;84.36;102751.44;5056158;28;20099;-45
2022/03/17 08:50:42;;;;;;;22.17;3.78;;;;;;;8.80;80.92;102763.59;5047201;28;20136;-49
2022/03/17 08:53:10;;;;;;;18.05;3.40;;;;;;;8.74;78.97;102759.84;5035995;28;20053;-49
2022/03/17 08:55:39;;;;;;;18.48;4.05;;;;;;;8.71;78.40;102762.97;5034175;28;20484;-48
2022/03/17 08:58:08;;;;;;;14.10;4.15;;;;;;;8.67;78.11;102762.53;5027675;28;20056;-48
2022/03/17 09:00:36;;;;;;;15.20;3.63;;;;;;;8.69;78.92;102775.94;5034406;28;20048;-47
2022/03/17 09:03:08;;;;;;;16.20;3.40;;;;;;;8.76;78.72;102779.50;5027134;28;20449;-46
2022/03/17 09:05:36;;;;;;;12.80;3.47;;;;;;;8.77;77.78;102780.31;5050375;28;20421;-46
2022/03/17 09:08:07;;;;;;;12.85;4.22;;;;;;;8.77;76.72;102781.16;5050782;28;20159;-45
2022/03/17 09:10:36;;;;;;;13.93;3.53;;;;;;;8.70;75.91;102794.72;5054722;28;20059;-47
2022/03/17 09:13:09;;;;;;;14.30;3.30;;;;;;;8.72;75.73;102795.34;5054172;28;20037;-46
2022/03/17 09:15:40;;;;;;;17.95;4.22;;;;;;;8.67;75.49;102800.59;5049257;28;20119;-48
2022/03/17 09:18:09;;;;;;;15.00;3.80;;;;;;;8.65;76.19;102799.13;5052955;28;20084;-45
2022/03/17 09:20:38;;;;;;;15.68;3.55;;;;;;;8.67;76.00;102808.72;5045289;28;20046;-46
2022/03/17 09:23:06;;;;;;;16.45;4.57;;;;;;;8.72;75.84;102808.13;5043624;28;20051;-46
2022/03/17 09:25:34;;;;;;;22.35;5.82;;;;;;;8.76;75.30;102816.72;5045856;28;20510;-45
2022/03/17 09:28:03;;;;;;;14.25;3.95;;;;;;;8.72;75.32;102805.41;5036122;28;20037;-47
2022/03/17 09:30:32;;;;;;;15.90;4.28;;;;;;;8.69;74.60;102816.69;5035021;28;20468;-47
2022/03/17 09:33:01;;;;;;;18.42;3.97;;;;;;;8.65;74.82;102826.28;5034950;28;20462;-45
2022/03/17 09:35:28;;;;;;;18.75;3.92;;;;;;;8.68;75.25;102834.03;5033684;28;20463;-45
2022/03/17 09:37:56;;;;;;;15.05;3.50;;;;;;;8.71;75.52;102834.47;5036054;28;20046;-45
2022/03/17 09:40:24;;;;;;;14.65;3.65;;;;;;;8.77;75.52;102846.38;5034526;28;20460;-49
2022/03/17 09:43:18;;;;;;;19.67;4.20;;;;;;;8.79;75.05;102846.19;5033607;28;20042;-47
2022/03/17 09:45:45;;;;;;;18.92;4.07;;;;;;;8.74;73.63;102852.25;5034882;28;20049;-47
2022/03/17 09:48:14;;;;;;;14.32;3.60;;;;;;;8.84;75.51;102858.09;5035981;28;20045;-42
2022/03/17 09:50:42;;;;;;;19.73;4.05;;;;;;;8.91;73.58;102848.09;5034923;28;20109;-44
2022/03/17 09:53:10;;;;;;;17.67;3.90;;;;;;;8.91;73.10;102852.69;5035076;28;20053;-45
2022/03/17 09:55:43;;;;;;;16.30;3.50;;;;;;;8.82;72.08;102872.94;5033091;28;20124;-44
2022/03/17 09:58:11;;;;;;;16.75;3.85;;;;;;;8.77;72.40;102862.69;5033655;28;20388;-46
2022/03/17 10:00:48;;;;;;;16.92;3.97;;;;;;;8.78;73.22;102869.81;5050603;28;20037;-45
2022/03/17 10:03:19;;;;;;;15.18;3.65;;;;;;;8.72;72.86;102871.47;5054672;28;20052;-47
2022/03/17 10:05:48;;;;;;;13.82;3.40;;;;;;;8.72;71.97;102881.50;5054311;28;20037;-47
2022/03/17 10:08:21;;;;;;;11.43;3.40;;;;;;;8.75;72.17;102878.38;5054341;28;20450;-45
2022/03/17 10:10:49;;;;;;;15.73;4.20;;;;;;;8.76;71.36;102899.09;5052404;28;20496;-47
2022/03/17 10:13:19;;;;;;;15.40;3.50;;;;;;;8.66;70.90;102898.59;5052919;28;20041;-45
2022/03/17 10:16:11;;;;;;;14.25;3.63;;;;;;;8.67;71.75;102905.72;5054497;28;20068;-47
2022/03/17 10:18:39;;;;;;;14.55;3.28;;;;;;;8.70;71.93;102905.31;5054368;28;20041;-43
2022/03/17 10:21:10;;;;;;;20.92;3.92;;;;;;;8.78;72.65;102916.03;5051317;28;20132;-44
2022/03/17 10:23:54;;;;;;;9.82;3.20;;;;;;;8.82;71.71;102922.72;5052994;28;20041;-44
2022/03/17 10:26:42;;;;;;;11.40;2.83;;;;;;;8.86;69.97;102921.25;5053976;28;20135;-44
2022/03/17 10:29:15;;;;;;;16.88;3.55;;;;;;;8.88;69.21;102926.50;5050160;28;20045;-45
2022/03/17 10:32:03;;;;;;;16.42;3.63;;;;;;;8.85;69.52;102938.63;5033548;28;20091;-47
2022/03/17 10:34:51;;;;;;;12.77;2.72;;;;;;;8.81;69.34;102942.78;5033908;28;20058;-45
2022/03/17 10:37:23;;;;;;;12.18;3.63;;;;;;;8.81;70.35;102942.78;5034000;28;20128;-43
2022/03/17 10:39:59;;;;;;;18.50;3.22;;;;;;;8.84;70.47;102958.69;5034894;28;20073;-43
2022/03/17 10:42:29;;;;;;;15.60;3.38;;;;;;;8.82;70.34;102957.22;5032456;28;20045;-43
2022/03/17 10:45:05;;;;;;;14.70;4.13;;;;;;;8.83;70.88;102965.19;5033452;28;20480;-45
2022/03/17 10:47:35;;;;;;;18.75;4.20;;;;;;;8.82;71.26;102963.47;5047889;28;20041;-43
2022/03/17 10:50:15;;;;;;;14.18;3.63;;;;;;;8.74;71.19;102969.09;5040248;28;20041;-47
2022/03/17 10:52:58;;;;;;;15.45;3.33;;;;;;;8.73;71.12;102981.88;5031804;28;20050;-47
2022/03/17 10:55:28;;;;;;;9.77;2.95;;;;;;;8.71;70.73;102980.41;5032212;28;20059;-44
2022/03/17 10:58:13;;;;;;;11.60;3.20;;;;;;;8.74;70.76;102974.53;5052965;28;20415;-45
2022/03/17 11:00:55;;;;;;;11.15;3.20;;;;;;;8.79;70.63;102980.22;5035455;28;20034;-45
2022/03/17 11:03:24;;;;;;;8.20;2.55;;;;;;;8.83;68.97;102980.66;5032467;28;20096;-44
2022/03/17 11:05:53;;;;;;;14.65;3.35;;;;;;;8.88;69.06;102989.88;5034006;28;20136;-43
2022/03/17 11:08:21;;;;;;;12.52;3.30;;;;;;;8.92;68.13;102990.28;5052797;28;20136;-42
2022/03/17 11:10:49;;;;;;;10.13;3.35;;;;;;;8.97;68.96;102998.66;5034645;28;20105;-43
2022/03/17 11:13:18;;;;;;;12.32;3.30;;;;;;;9.04;69.13;103001.41;5033427;28;20045;-43
2022/03/17 11:15:57;;;;;;;8.63;3.00;;;;;;;9.07;67.49;103003.75;5034250;28;20051;-46
2022/03/17 11:18:32;;;;;;;10.35;3.30;;;;;;;9.10;67.99;103003.31;5032296;28;20484;-47
2022/03/17 11:21:28;;;;;;;12.68;4.65;;;;;;;9.12;67.70;103006.69;5032041;28;20045;-46
2022/03/17 11:24:05;;;;;;;16.13;4.50;;;;;;;9.08;67.29;103019.00;5036491;28;20495;-44
2022/03/17 11:26:41;;;;;;;14.48;3.40;;;;;;;9.09;67.81;103017.94;5050315;28;20041;-46
2022/03/17 11:29:11;;;;;;;9.52;3.00;;;;;;;9.05;67.44;103027.59;5042416;28;20503;-48
2022/03/17 11:31:56;;;;;;;10.38;2.70;;;;;;;9.05;67.80;103027.59;5033143;28;20040;-47
2022/03/17 11:34:38;;;;;;;11.68;2.85;;;;;;;9.08;67.97;103032.59;5043878;28;20037;-44
2022/03/17 11:37:26;;;;;;;9.15;3.22;;;;;;;9.12;68.13;103033.88;5033351;28;20045;-46
2022/03/17 11:40:13;;;;;;;12.95;3.08;;;;;;;9.13;68.15;103035.56;5034145;28;20518;-45
2022/03/17 11:42:52;;;;;;;12.73;3.17;;;;;;;9.20;68.46;103038.28;5033914;28;20393;-47
2022/03/17 11:45:20;;;;;;;14.98;3.63;;;;;;;9.20;68.32;103041.84;5052838;28;20048;-46
2022/03/17 11:47:53;;;;;;;9.82;2.80;;;;;;;9.23;67.91;103046.88;5052042;28;20079;-45